Terminal Aerodrome Forecast
Issued by NWS

Home | Current Version | Previous Version | Text Only | Print | Product List | Glossary On
Versions: 1 2 3 4 5 6 7 8 9 10 11 12 13 14 15
129
FTUS43 KLSX 240520
TAFUIN
TAF
KUIN 240520Z 2406/2506 16015KT P6SM SKC WS016/20045KT
     FM241400 19015G24KT P6SM BKN250
     FM242300 19010KT 3SM TSRA OVC030CB
     FM250200 16010KT 4SM -RA BR VCTS OVC020CB
     FM250500 14010KT 6SM BR BKN020=

USA.gov is the U.S. government's official web portal to all federal, state and local government web resources and services.